Time;durP1;ratioP1;P1;durP2;ratioP2;P2;SDS_P1;SDS_P2;PMS_P1;PMS_P2;Temp;Humidity;BMP_temperature;BMP_pressure;BME280_temperature;BME280_humidity;BME280_pressure;Samples;Min_cycle;Max_cycle;Signal;HPM_P1;HPM_P2
2023/03/31 02:02:13;;;;;;;9.37;8.57;;;10.70;99.90;;;;;;5270489;23;20242;-76
2023/03/31 02:04:43;;;;;;;9.27;8.57;;;10.70;99.90;;;;;;4967611;28;20203;-76
2023/03/31 02:07:16;;;;;;;8.90;8.20;;;10.70;99.90;;;;;;4969630;28;20663;-75
2023/03/31 02:09:47;;;;;;;9.13;8.30;;;10.70;99.90;;;;;;4959773;28;20227;-75
2023/03/31 02:12:16;;;;;;;9.47;8.77;;;10.70;99.90;;;;;;4938141;29;20229;-76
2023/03/31 02:14:46;;;;;;;9.37;8.57;;;10.70;99.90;;;;;;4935048;29;20500;-76
2023/03/31 02:17:18;;;;;;;9.53;8.80;;;10.80;99.90;;;;;;4934049;29;20197;-75
2023/03/31 02:19:49;;;;;;;10.07;9.00;;;10.80;99.90;;;;;;4943879;29;20201;-76
2023/03/31 02:22:18;;;;;;;9.97;8.97;;;10.80;99.90;;;;;;4949716;28;20235;-76
2023/03/31 02:24:48;;;;;;;11.97;8.73;;;10.80;99.90;;;;;;4948738;28;20256;-76
2023/03/31 02:27:21;;;;;;;9.50;8.60;;;10.80;99.90;;;;;;4947834;29;20209;-76
2023/03/31 02:29:49;;;;;;;11.60;9.30;;;10.80;99.90;;;;;;4949466;29;20222;-75
2023/03/31 02:32:22;;;;;;;9.90;9.07;;;10.70;99.90;;;;;;4945103;29;20626;-76
2023/03/31 02:34:49;;;;;;;9.50;8.70;;;10.70;99.90;;;;;;4951814;29;20207;-76
2023/03/31 02:37:16;;;;;;;9.70;8.77;;;10.60;99.90;;;;;;4948344;29;20562;-76
2023/03/31 02:39:47;;;;;;;9.63;8.73;;;10.60;99.90;;;;;;4946159;28;20211;-74
2023/03/31 02:42:15;;;;;;;10.07;9.17;;;10.50;99.90;;;;;;4945292;28;20219;-76
2023/03/31 02:44:42;;;;;;;10.37;9.57;;;10.50;99.90;;;;;;4945130;29;20199;-75
2023/03/31 02:47:12;;;;;;;10.00;9.20;;;10.40;99.90;;;;;;4949237;29;20700;-75
2023/03/31 02:49:44;;;;;;;9.93;9.00;;;10.40;99.90;;;;;;4948344;29;20224;-75
2023/03/31 02:52:39;;;;;;;9.50;8.80;;;10.40;99.90;;;;;;4951193;28;20233;-78
2023/03/31 02:55:26;;;;;;;9.60;9.00;;;10.30;99.90;;;;;;4915091;29;20252;-76
2023/03/31 02:58:28;;;;;;;9.90;9.10;;;10.30;99.90;;;;;;4947835;29;20238;-79
2023/03/31 03:01:07;;;;;;;9.97;9.23;;;10.20;99.90;;;;;;4902461;29;20227;-78
2023/03/31 03:03:42;;;;;;;9.70;9.00;;;10.20;99.90;;;;;;4935933;29;20209;-77
2023/03/31 03:06:22;;;;;;;10.10;9.40;;;10.20;99.90;;;;;;4933005;29;20200;-77
2023/03/31 03:09:03;;;;;;;9.77;9.17;;;10.10;99.90;;;;;;4945429;29;20759;-78
2023/03/31 03:11:39;;;;;;;10.07;9.27;;;10.10;99.90;;;;;;4932323;29;20346;-78
2023/03/31 03:14:13;;;;;;;9.53;8.87;;;10.10;99.90;;;;;;4936591;29;20601;-78
2023/03/31 03:16:43;;;;;;;9.47;8.80;;;10.00;99.90;;;;;;4944235;29;20211;-77
2023/03/31 03:19:17;;;;;;;9.73;9.03;;;10.00;99.90;;;;;;4946134;29;20207;-76
2023/03/31 03:21:46;;;;;;;10.37;9.57;;;9.90;99.90;;;;;;4948716;28;20232;-77
2023/03/31 03:24:14;;;;;;;10.57;9.73;;;9.90;99.90;;;;;;4948334;28;20250;-77
2023/03/31 03:26:40;;;;;;;10.33;9.53;;;9.80;99.90;;;;;;4946913;28;20254;-77
2023/03/31 03:29:08;;;;;;;10.93;9.93;;;9.80;99.90;;;;;;4949683;28;20215;-81
2023/03/31 03:31:34;;;;;;;12.17;10.87;;;9.70;99.90;;;;;;4949440;28;20274;-77
2023/03/31 03:34:02;;;;;;;11.13;10.20;;;9.70;99.90;;;;;;4935332;29;20229;-79
2023/03/31 03:36:28;;;;;;;11.30;10.40;;;9.70;99.90;;;;;;4945995;29;20233;-78
2023/03/31 03:38:57;;;;;;;11.40;10.40;;;9.60;99.90;;;;;;4946515;29;20204;-79
2023/03/31 03:41:23;;;;;;;12.77;11.67;;;9.60;99.90;;;;;;4954554;28;20233;-77
2023/03/31 03:43:50;;;;;;;12.10;11.23;;;9.50;99.90;;;;;;4936834;29;20294;-75
2023/03/31 03:46:17;;;;;;;14.30;13.10;;;9.50;99.90;;;;;;4943702;29;20203;-75
2023/03/31 03:48:44;;;;;;;13.83;12.73;;;9.50;99.90;;;;;;4945983;29;20294;-76
2023/03/31 03:51:10;;;;;;;11.10;10.27;;;9.40;99.90;;;;;;4950744;28;20274;-76
2023/03/31 03:53:37;;;;;;;12.00;10.90;;;9.40;99.90;;;;;;4951002;29;20226;-76
2023/03/31 03:56:06;;;;;;;11.97;10.93;;;9.30;99.90;;;;;;4955596;29;20233;-75
2023/03/31 03:58:33;;;;;;;12.27;11.17;;;9.20;99.90;;;;;;4953743;29;20206;-76
2023/03/31 04:01:00;;;;;;;12.90;11.87;;;9.20;99.90;;;;;;4950689;28;20214;-75
2023/03/31 04:03:27;;;;;;;12.63;11.70;;;9.10;99.90;;;;;;4948369;29;20670;-76
2023/03/31 04:05:53;;;;;;;11.87;10.97;;;9.10;99.90;;;;;;4948957;28;20281;-74
2023/03/31 04:08:20;;;;;;;11.60;10.57;;;9.00;99.90;;;;;;4952178;28;20194;-76
2023/03/31 04:10:48;;;;;;;12.47;11.53;;;9.00;99.90;;;;;;4949964;29;20235;-76
2023/03/31 04:13:17;;;;;;;12.20;11.10;;;9.00;99.90;;;;;;4953274;28;20285;-75
2023/03/31 04:15:44;;;;;;;11.70;10.83;;;9.00;99.90;;;;;;4953986;29;20681;-76
2023/03/31 04:18:17;;;;;;;12.87;11.67;;;9.10;99.90;;;;;;4948792;29;20198;-75
2023/03/31 04:20:44;;;;;;;12.93;11.73;;;9.20;99.90;;;;;;4938428;28;20274;-76
2023/03/31 04:23:13;;;;;;;12.83;11.70;;;9.30;99.90;;;;;;4952376;28;20285;-75
2023/03/31 04:25:45;;;;;;;11.33;10.53;;;9.40;99.90;;;;;;4950312;29;20206;-76
2023/03/31 04:28:13;;;;;;;11.93;10.87;;;9.40;99.90;;;;;;4950653;28;20206;-76
2023/03/31 04:30:42;;;;;;;11.63;10.70;;;9.50;99.90;;;;;;4948865;29;20649;-75
2023/03/31 04:33:09;;;;;;;12.57;11.30;;;9.50;99.90;;;;;;4953488;28;20282;-75
2023/03/31 04:35:48;;;;;;;11.70;10.90;;;9.60;99.90;;;;;;4943987;29;20203;-75
2023/03/31 04:38:17;;;;;;;11.87;10.77;;;9.60;99.90;;;;;;4943313;29;20195;-75
2023/03/31 04:40:45;;;;;;;12.33;11.30;;;9.70;99.90;;;;;;4952712;28;20245;-75
2023/03/31 04:43:12;;;;;;;11.10;10.20;;;9.70;99.90;;;;;;4951771;28;20274;-76
2023/03/31 04:45:38;;;;;;;12.13;11.13;;;9.80;99.90;;;;;;4951084;28;20203;-75
2023/03/31 04:48:07;;;;;;;11.67;10.57;;;9.80;99.90;;;;;;4948489;29;20723;-74
2023/03/31 04:50:34;;;;;;;12.30;11.10;;;9.80;99.90;;;;;;4939449;28;20227;-76
2023/03/31 04:53:01;;;;;;;11.63;10.60;;;9.90;99.90;;;;;;4952212;29;20198;-75
2023/03/31 04:55:28;;;;;;;12.10;11.07;;;9.90;99.90;;;;;;4952533;28;20195;-75
2023/03/31 04:57:55;;;;;;;11.77;10.93;;;10.00;99.90;;;;;;4954997;29;20689;-75
2023/03/31 05:00:23;;;;;;;12.10;11.30;;;;;;;;;;4949390;28;20226;-76
2023/03/31 05:02:50;;;;;;;11.87;10.87;;;10.00;99.90;;;;;;4949379;28;20199;-75
2023/03/31 05:05:18;;;;;;;12.50;11.33;;;10.10;99.90;;;;;;4948043;28;20237;-76
2023/03/31 05:07:45;;;;;;;12.63;11.57;;;10.10;99.90;;;;;;4952482;28;20198;-75
2023/03/31 05:10:12;;;;;;;11.87;11.03;;;10.10;99.90;;;;;;4951314;28;20301;-76
2023/03/31 05:12:39;;;;;;;11.67;10.67;;;10.10;99.90;;;;;;4949627;28;20223;-75
2023/03/31 05:15:07;;;;;;;12.33;11.13;;;10.10;99.90;;;;;;4938846;29;20661;-75
2023/03/31 05:17:35;;;;;;;11.90;10.97;;;10.10;99.90;;;;;;4950055;29;20265;-76
2023/03/31 05:20:05;;;;;;;11.90;10.80;;;10.10;99.90;;;;;;4949134;28;20203;-76
2023/03/31 05:22:34;;;;;;;9.97;9.17;;;10.10;99.90;;;;;;4946910;28;20226;-76
2023/03/31 05:25:01;;;;;;;11.63;10.63;;;10.10;99.90;;;;;;4943146;29;20281;-76
2023/03/31 05:27:28;;;;;;;12.07;11.10;;;10.10;99.90;;;;;;4951988;28;20251;-76
2023/03/31 05:29:55;;;;;;;13.20;12.10;;;10.20;99.90;;;;;;4950466;28;20238;-75
2023/03/31 05:32:21;;;;;;;12.47;11.30;;;10.10;99.90;;;;;;4952485;28;20219;-76
2023/03/31 05:34:48;;;;;;;12.80;11.80;;;10.10;99.90;;;;;;4943001;29;20207;-76
2023/03/31 05:37:15;;;;;;;12.60;11.67;;;10.20;99.90;;;;;;4948779;29;20769;-76
2023/03/31 05:39:43;;;;;;;13.20;12.10;;;10.10;99.90;;;;;;4947598;28;20610;-76
2023/03/31 05:42:10;;;;;;;12.80;11.70;;;10.10;99.90;;;;;;4951482;28;20212;-75
2023/03/31 05:44:37;;;;;;;14.23;12.80;;;10.10;99.90;;;;;;4951045;28;20258;-76
2023/03/31 05:47:04;;;;;;;13.73;12.57;;;10.10;99.90;;;;;;4950451;28;20202;-75
2023/03/31 05:49:31;;;;;;;13.30;12.10;;;10.10;99.90;;;;;;4950321;28;20206;-75
2023/03/31 05:51:58;;;;;;;14.07;12.97;;;10.00;99.90;;;;;;4951980;28;20246;-75
2023/03/31 05:54:26;;;;;;;14.00;12.90;;;10.00;99.90;;;;;;4939253;29;20283;-76
2023/03/31 05:56:54;;;;;;;15.90;13.67;;;10.00;99.90;;;;;;4944594;29;20740;-76
2023/03/31 05:59:21;;;;;;;15.20;14.00;;;10.00;99.90;;;;;;4950365;29;20207;-76
2023/03/31 06:01:48;;;;;;;20.23;14.70;;;10.00;99.90;;;;;;4950042;28;20316;-76
2023/03/31 06:04:14;;;;;;;15.17;13.77;;;10.00;99.90;;;;;;4944567;29;20216;-75
2023/03/31 06:06:41;;;;;;;14.27;13.07;;;10.00;99.90;;;;;;4935630;29;20268;-75
2023/03/31 06:09:10;;;;;;;14.87;13.77;;;10.00;99.90;;;;;;4932856;29;20201;-75
2023/03/31 06:11:38;;;;;;;14.60;13.50;;;10.00;99.90;;;;;;4935453;29;20401;-77
2023/03/31 06:14:06;;;;;;;15.07;13.73;;;10.00;99.90;;;;;;4938088;29;20277;-76
2023/03/31 06:16:32;;;;;;;16.00;14.43;;;10.00;99.90;;;;;;4952821;28;20262;-78
2023/03/31 06:18:59;;;;;;;15.60;14.40;;;10.00;99.90;;;;;;4956257;29;20677;-79
2023/03/31 06:21:26;;;;;;;16.37;15.00;;;10.00;99.90;;;;;;4943039;29;20265;-76
2023/03/31 06:23:54;;;;;;;15.73;14.53;;;10.00;99.90;;;;;;4948341;28;20262;-76
2023/03/31 06:26:22;;;;;;;15.17;14.00;;;10.00;99.90;;;;;;4946193;29;20565;-76
2023/03/31 06:28:49;;;;;;;15.13;14.00;;;10.10;99.90;;;;;;4951267;28;20210;-76
2023/03/31 06:31:19;;;;;;;15.00;13.90;;;10.10;99.90;;;;;;4950554;28;20231;-75
2023/03/31 06:33:46;;;;;;;15.90;14.70;;;10.20;99.90;;;;;;4949696;28;20200;-75
2023/03/31 06:36:15;;;;;;;14.67;13.67;;;10.10;99.90;;;;;;4953599;28;20203;-78
2023/03/31 06:38:42;;;;;;;16.33;14.93;;;10.20;99.90;;;;;;4950035;29;20282;-77
2023/03/31 06:41:11;;;;;;;15.60;14.40;;;10.20;99.90;;;;;;4948139;28;20214;-78
2023/03/31 06:43:38;;;;;;;16.10;14.90;;;10.20;99.90;;;;;;4940077;28;20235;-77
2023/03/31 06:46:06;;;;;;;16.20;14.90;;;10.20;99.90;;;;;;4950584;29;20235;-77
2023/03/31 06:48:34;;;;;;;16.13;14.93;;;10.20;99.90;;;;;;4948600;29;20630;-77
2023/03/31 06:51:03;;;;;;;16.50;15.30;;;10.20;99.90;;;;;;4939913;29;20298;-77
2023/03/31 06:53:30;;;;;;;16.70;15.03;;;10.20;99.90;;;;;;4950495;28;20203;-77
2023/03/31 06:55:57;;;;;;;17.53;15.73;;;10.10;99.90;;;;;;4944413;29;20204;-77
2023/03/31 06:58:24;;;;;;;17.90;16.03;;;10.00;99.90;;;;;;4946949;29;20334;-77
2023/03/31 07:00:51;;;;;;;17.53;15.87;;;9.80;99.90;;;;;;4940826;29;20240;-77
2023/03/31 07:03:21;;;;;;;16.60;15.07;;;9.80;99.90;;;;;;4947585;28;20586;-77
2023/03/31 07:05:50;;;;;;;15.97;14.57;;;9.80;99.90;;;;;;4948061;28;20203;-77
2023/03/31 07:08:17;;;;;;;14.50;13.50;;;9.80;99.90;;;;;;4949608;29;20215;-76
2023/03/31 07:10:47;;;;;;;14.57;13.17;;;9.80;99.90;;;;;;4946239;28;20227;-77
2023/03/31 07:13:14;;;;;;;14.20;12.90;;;9.80;99.90;;;;;;4946291;29;20205;-77
2023/03/31 07:15:41;;;;;;;14.97;13.77;;;9.90;99.90;;;;;;4952529;29;20261;-78
2023/03/31 07:18:08;;;;;;;13.80;12.70;;;9.90;99.90;;;;;;4950550;29;20253;-76
2023/03/31 07:20:36;;;;;;;13.60;12.50;;;9.90;99.90;;;;;;4945356;28;20241;-77
2023/03/31 07:23:05;;;;;;;13.37;12.07;;;10.00;99.90;;;;;;4947643;28;20195;-76
2023/03/31 07:25:32;;;;;;;12.87;11.83;;;10.00;99.90;;;;;;4948666;28;20196;-76
2023/03/31 07:27:59;;;;;;;12.60;11.80;;;10.00;99.90;;;;;;4949891;29;20579;-76
2023/03/31 07:30:26;;;;;;;12.77;11.63;;;10.10;99.90;;;;;;4947797;29;20223;-76
2023/03/31 07:32:53;;;;;;;11.83;11.07;;;10.20;99.90;;;;;;4950710;29;20210;-75
2023/03/31 07:35:21;;;;;;;12.17;11.47;;;10.30;99.90;;;;;;4950008;28;20198;-76
2023/03/31 07:37:49;;;;;;;12.50;11.70;;;10.40;99.90;;;;;;4949719;28;20734;-76
2023/03/31 07:40:20;;;;;;;12.20;11.40;;;10.60;99.90;;;;;;4950274;28;20411;-80
2023/03/31 07:42:48;;;;;;;12.43;11.60;;;10.80;99.90;;;;;;4948466;29;20212;-77
2023/03/31 07:45:16;;;;;;;11.77;10.97;;;11.00;99.90;;;;;;4936476;29;20565;-79
2023/03/31 07:47:45;;;;;;;10.90;10.20;;;11.30;99.90;;;;;;4949572;29;20233;-80
2023/03/31 07:50:12;;;;;;;11.33;10.53;;;11.50;99.90;;;;;;4948291;29;20699;-78
2023/03/31 07:52:39;;;;;;;10.90;10.20;;;11.60;99.90;;;;;;4958795;28;20258;-79
2023/03/31 07:55:07;;;;;;;10.17;9.57;;;11.60;99.90;;;;;;4952283;28;20232;-79
2023/03/31 07:57:36;;;;;;;10.13;9.37;;;11.70;99.90;;;;;;4950479;29;20205;-79
2023/03/31 08:00:06;;;;;;;8.27;7.77;;;11.80;99.90;;;;;;4951946;28;20557;-79
2023/03/31 08:02:39;;;;;;;9.23;8.70;;;11.90;99.90;;;;;;4954554;28;20597;-78
2023/03/31 08:05:07;;;;;;;8.07;7.50;;;12.20;99.90;;;;;;4950441;28;20206;-79
2023/03/31 08:07:34;;;;;;;7.40;7.00;;;12.40;99.90;;;;;;4954012;28;20215;-79
2023/03/31 08:10:02;;;;;;;7.80;7.30;;;12.40;99.90;;;;;;4945074;29;20226;-79
2023/03/31 08:12:29;;;;;;;8.50;8.00;;;12.90;99.90;;;;;;4949774;29;20595;-79
2023/03/31 08:14:57;;;;;;;9.37;8.67;;;13.70;99.90;;;;;;4935072;29;20199;-80
2023/03/31 08:17:24;;;;;;;10.07;9.50;;;14.20;99.90;;;;;;4945193;29;20253;-79
2023/03/31 08:19:51;;;;;;;10.30;9.70;;;14.70;99.90;;;;;;4942998;29;20205;-78
2023/03/31 08:22:18;;;;;;;9.33;8.83;;;15.20;99.90;;;;;;4938767;29;20260;-79
2023/03/31 08:24:44;;;;;;;9.00;8.40;;;15.60;99.90;;;;;;4951123;28;20700;-79
2023/03/31 08:27:11;;;;;;;7.77;7.27;;;15.90;99.90;;;;;;4936706;29;20243;-79
2023/03/31 08:29:38;;;;;;;7.00;6.60;;;16.30;99.90;;;;;;4934354;29;20204;-79
2023/03/31 08:32:06;;;;;;;8.13;7.63;;;16.50;99.90;;;;;;4948439;28;20306;-79
2023/03/31 08:34:33;;;;;;;7.00;6.47;;;16.80;99.90;;;;;;4944294;29;20214;-79
2023/03/31 08:37:00;;;;;;;6.30;5.83;;;17.00;99.90;;;;;;4947314;28;20643;-79
2023/03/31 08:39:27;;;;;;;5.30;5.00;;;17.20;99.90;;;;;;4948419;29;20752;-78
2023/03/31 08:42:00;;;;;;;5.03;4.73;;;17.30;99.90;;;;;;4955178;28;20219;-79
2023/03/31 08:44:32;;;;;;;2.37;2.17;;;17.40;99.90;;;;;;4951503;29;20211;-80
2023/03/31 08:47:01;;;;;;;2.67;2.20;;;17.50;99.90;;;;;;4949685;29;20206;-79
2023/03/31 08:49:33;;;;;;;2.50;2.30;;;17.80;99.90;;;;;;4946322;28;20232;-78
2023/03/31 08:52:05;;;;;;;3.63;2.30;;;18.00;99.90;;;;;;4946269;29;20233;-79
2023/03/31 08:54:36;;;;;;;2.53;2.30;;;18.30;99.90;;;;;;4953793;28;20289;-80
2023/03/31 08:57:12;;;;;;;3.07;2.30;;;18.40;99.90;;;;;;4953038;28;20253;-79
2023/03/31 08:59:39;;;;;;;2.20;2.10;;;18.50;99.90;;;;;;4950909;28;20201;-79
2023/03/31 09:02:18;;;;;;;2.37;2.17;;;18.60;99.90;;;;;;4954292;28;20228;-79
2023/03/31 09:04:58;;;;;;;2.50;2.30;;;18.70;99.90;;;;;;4937741;29;20257;-79
2023/03/31 09:07:35;;;;;;;2.00;1.90;;;18.90;99.90;;;;;;4961622;28;20213;-80
2023/03/31 09:10:16;;;;;;;2.77;2.10;;;19.00;99.90;;;;;;4956584;29;20208;-79
2023/03/31 09:12:50;;;;;;;2.10;1.90;;;18.80;99.90;;;;;;4929707;29;20285;-81
2023/03/31 09:15:25;;;;;;;3.60;3.30;;;18.90;99.90;;;;;;4933455;29;20217;-81
2023/03/31 09:17:54;;;;;;;3.50;3.30;;;18.90;99.90;;;;;;4935994;29;20729;-81
2023/03/31 09:20:28;;;;;;;3.90;3.50;;;18.70;99.90;;;;;;4935383;29;20205;-81
2023/03/31 09:23:01;;;;;;;4.10;3.80;;;18.80;99.90;;;;;;4952119;29;20265;-81
2023/03/31 09:25:33;;;;;;;3.53;3.30;;;18.60;99.90;;;;;;4957310;29;20207;-81
2023/03/31 09:28:03;;;;;;;3.40;3.20;;;18.40;99.90;;;;;;4957151;29;20206;-81
2023/03/31 09:30:31;;;;;;;3.50;3.30;;;18.50;99.90;;;;;;4950730;29;20429;-81
2023/03/31 09:33:09;;;;;;;3.77;3.47;;;18.90;99.90;;;;;;4947593;29;20198;-80
2023/03/31 09:35:38;;;;;;;3.57;3.10;;;18.60;99.90;;;;;;4946401;29;20688;-81
2023/03/31 09:38:05;;;;;;;3.50;3.20;;;18.60;99.90;;;;;;4945382;29;20271;-82
2023/03/31 09:40:32;;;;;;;3.60;3.30;;;18.80;99.90;;;;;;4938011;29;20199;-80
2023/03/31 09:43:02;;;;;;;4.37;3.93;;;18.60;99.90;;;;;;4947519;29;20214;-80
2023/03/31 09:45:30;;;;;;;4.67;4.10;;;18.60;99.90;;;;;;4950971;28;20210;-79
2023/03/31 09:47:58;;;;;;;4.90;4.17;;;18.70;99.90;;;;;;4931417;28;20207;-79
2023/03/31 09:50:26;;;;;;;4.73;4.13;;;18.80;99.90;;;;;;4952815;28;20599;-80
2023/03/31 09:52:57;;;;;;;2.90;2.70;;;18.90;99.90;;;;;;4950715;29;20285;-80
2023/03/31 09:55:27;;;;;;;2.60;2.23;;;18.80;99.90;;;;;;4939475;29;20217;-80
2023/03/31 09:57:54;;;;;;;3.70;3.40;;;18.80;99.90;;;;;;4946105;29;20261;-79
2023/03/31 10:00:23;;;;;;;6.53;3.77;;;18.60;99.90;;;;;;4951923;28;20229;-80
2023/03/31 10:02:51;;;;;;;6.93;6.33;;;18.40;99.90;;;;;;4950480;28;20202;-79
2023/03/31 10:05:33;;;;;;;6.47;5.73;;;18.10;99.90;;;;;;4955042;28;20229;-80
2023/03/31 10:08:20;;;;;;;6.83;5.60;;;18.00;99.90;;;;;;4931701;29;20234;-79
2023/03/31 10:10:49;;;;;;;5.70;5.20;;;18.20;99.90;;;;;;4930562;29;20645;-79
2023/03/31 10:13:19;;;;;;;4.17;3.00;;;18.20;99.90;;;;;;4930383;29;20261;-79
2023/03/31 10:15:46;;;;;;;6.00;2.97;;;18.40;99.90;;;;;;4952814;28;20231;-80
2023/03/31 10:18:14;;;;;;;4.20;2.90;;;18.40;99.90;;;;;;4949558;28;20243;-80
2023/03/31 10:20:48;;;;;;;5.63;2.97;;;18.50;99.90;;;;;;4944692;28;20206;-79
2023/03/31 10:23:22;;;;;;;5.07;3.10;;;18.30;99.90;;;;;;4948817;28;20566;-80
2023/03/31 10:25:50;;;;;;;5.43;2.93;;;18.10;99.90;;;;;;4947300;29;20253;-79
2023/03/31 10:28:19;;;;;;;6.53;2.70;;;17.90;99.90;;;;;;4950187;29;20228;-80
2023/03/31 10:30:48;;;;;;;6.20;3.10;;;17.70;99.90;;;;;;4951099;28;20220;-80
2023/03/31 10:33:18;;;;;;;6.03;3.77;;;17.80;99.90;;;;;;4952249;29;20634;-80
2023/03/31 10:35:47;;;;;;;4.60;3.00;;;17.80;99.90;;;;;;4940472;29;20212;-80
2023/03/31 10:38:21;;;;;;;4.13;3.10;;;17.70;99.90;;;;;;4944155;28;20619;-80
2023/03/31 10:40:51;;;;;;;4.33;2.30;;;17.80;99.90;;;;;;4937540;28;20706;-79
2023/03/31 10:43:20;;;;;;;5.93;2.67;;;17.80;99.90;;;;;;4951296;28;20263;-80
2023/03/31 10:45:49;;;;;;;5.43;4.50;;;17.70;99.90;;;;;;4948547;29;20251;-80
2023/03/31 10:48:23;;;;;;;5.20;3.17;;;17.60;99.90;;;;;;4947878;29;20209;-79
2023/03/31 10:50:50;;;;;;;3.50;2.40;;;17.60;99.90;;;;;;4940946;28;20269;-79
2023/03/31 10:53:19;;;;;;;5.40;3.23;;;17.80;99.90;;;;;;4950243;29;20203;-79
2023/03/31 10:56:01;;;;;;;3.33;2.40;;;17.80;99.90;;;;;;4947782;29;20199;-79
2023/03/31 10:58:39;;;;;;;6.90;2.70;;;18.00;99.90;;;;;;4945257;29;20690;-79
2023/03/31 11:01:18;;;;;;;4.97;2.30;;;18.00;99.90;;;;;;4943421;28;20229;-79
2023/03/31 11:04:16;;;;;;;4.23;2.53;;;18.10;99.90;;;;;;4943877;29;20207;-79
2023/03/31 11:06:53;;;;;;;3.60;2.50;;;18.10;99.90;;;;;;4943100;29;20728;-78
2023/03/31 11:09:40;;;;;;;4.37;2.23;;;18.10;99.90;;;;;;4943920;29;20271;-80
2023/03/31 11:12:16;;;;;;;3.23;2.23;;;18.20;99.90;;;;;;4944987;29;20220;-80
2023/03/31 11:14:54;;;;;;;4.80;2.60;;;18.20;99.90;;;;;;4948994;29;20204;-79
2023/03/31 11:17:31;;;;;;;5.63;2.60;;;18.10;99.90;;;;;;4949431;29;20583;-79
2023/03/31 11:20:09;;;;;;;5.47;2.60;;;18.00;99.90;;;;;;4950156;28;20206;-79
2023/03/31 11:22:43;;;;;;;5.20;2.40;;;17.60;99.90;;;;;;4952338;28;20234;-80
2023/03/31 11:25:21;;;;;;;7.47;3.73;;;17.00;99.90;;;;;;4946157;29;20205;-80
2023/03/31 11:28:02;;;;;;;13.93;7.90;;;16.20;99.90;;;;;;4950959;28;20271;-77
2023/03/31 11:30:36;;;;;;;8.40;7.67;;;14.80;99.90;;;;;;4950455;28;20419;-77
2023/03/31 11:33:26;;;;;;;8.20;7.67;;;13.50;99.90;;;;;;4948251;29;20224;-77
2023/03/31 11:36:07;;;;;;;8.00;7.40;;;12.50;99.90;;;;;;4945136;29;20195;-78
2023/03/31 11:38:47;;;;;;;8.63;8.03;;;11.70;99.90;;;;;;4936041;29;20212;-77
2023/03/31 11:41:19;;;;;;;8.23;7.50;;;11.30;99.90;;;;;;4948907;28;20223;-78
2023/03/31 11:43:48;;;;;;;8.57;7.97;;;11.10;99.90;;;;;;4948295;28;20225;-77
2023/03/31 11:46:18;;;;;;;8.80;8.20;;;10.90;99.90;;;;;;4929280;29;20261;-78
2023/03/31 11:48:50;;;;;;;8.60;8.00;;;10.70;99.90;;;;;;4949670;29;20207;-77
2023/03/31 11:51:21;;;;;;;7.90;7.50;;;10.50;99.90;;;;;;4946585;28;20230;-77
2023/03/31 11:53:51;;;;;;;8.40;7.80;;;10.40;99.90;;;;;;4944994;29;20683;-77
2023/03/31 11:56:21;;;;;;;8.40;7.80;;;10.30;99.90;;;;;;4929980;29;20206;-77
2023/03/31 11:58:52;;;;;;;9.00;8.40;;;10.30;99.90;;;;;;4938770;28;20205;-79
2023/03/31 12:01:24;;;;;;;8.23;7.80;;;11.00;99.90;;;;;;4938589;29;20661;-78
2023/03/31 12:03:58;;;;;;;8.63;8.13;;;11.20;99.90;;;;;;4942926;29;20256;-77
2023/03/31 12:06:29;;;;;;;8.00;7.50;;;11.70;99.90;;;;;;4933610;29;20277;-77
2023/03/31 12:09:07;;;;;;;8.30;7.70;;;11.90;99.90;;;;;;4941195;29;20206;-79
2023/03/31 12:11:41;;;;;;;8.03;7.53;;;12.10;99.90;;;;;;4932563;28;20225;-77
2023/03/31 12:14:27;;;;;;;8.40;7.90;;;12.20;99.90;;;;;;4949997;29;20191;-76
2023/03/31 12:16:58;;;;;;;8.70;8.20;;;12.40;99.90;;;;;;4953283;28;20623;-76
2023/03/31 12:19:29;;;;;;;8.80;8.30;;;12.50;99.90;;;;;;4947588;29;20207;-76
2023/03/31 12:22:04;;;;;;;8.43;7.83;;;12.60;99.90;;;;;;4952717;28;20214;-76
2023/03/31 12:24:31;;;;;;;8.80;8.10;;;12.70;99.90;;;;;;4948035;29;20201;-76
2023/03/31 12:27:08;;;;;;;8.10;7.70;;;12.60;99.90;;;;;;4952184;29;20252;-76
2023/03/31 12:29:38;;;;;;;8.37;7.70;;;12.60;99.90;;;;;;4952431;28;20273;-77
2023/03/31 12:32:12;;;;;;;8.10;7.70;;;12.80;99.90;;;;;;4949888;29;20226;-77
2023/03/31 12:34:45;;;;;;;8.37;7.87;;;12.90;99.90;;;;;;4950562;28;20197;-77
2023/03/31 12:37:55;;;;;;;8.93;8.23;;;13.10;99.90;;;;;;4946826;29;20221;-76
2023/03/31 12:40:32;;;;;;;8.87;8.20;;;13.10;99.90;;;;;;4948103;28;20678;-77
2023/03/31 12:43:23;;;;;;;9.17;8.37;;;13.30;99.90;;;;;;4939801;29;20203;-77
2023/03/31 12:45:57;;;;;;;8.73;8.23;;;13.40;99.90;;;;;;4936664;29;20206;-77
2023/03/31 12:48:52;;;;;;;9.27;8.57;;;13.50;99.90;;;;;;4939726;29;20210;-77
2023/03/31 12:51:34;;;;;;;9.63;8.93;;;13.40;99.90;;;;;;4944699;29;20227;-77
2023/03/31 12:54:13;;;;;;;8.70;8.10;;;13.40;99.90;;;;;;4941008;29;20684;-79
2023/03/31 12:57:13;;;;;;;8.60;8.00;;;13.30;99.90;;;;;;4941195;29;20681;-75
2023/03/31 12:59:43;;;;;;;8.87;8.17;;;13.30;99.90;;;;;;4940979;29;20670;-76
2023/03/31 13:02:24;;;;;;;8.80;8.30;;;13.40;99.90;;;;;;4951699;28;20318;-76
2023/03/31 13:04:52;;;;;;;9.10;8.40;;;13.50;99.90;;;;;;4950536;29;20194;-76
2023/03/31 13:07:41;;;;;;;8.80;8.00;;;13.70;99.90;;;;;;4947297;29;20443;-75
2023/03/31 13:10:27;;;;;;;8.70;8.03;;;13.80;99.90;;;;;;4948190;28;20199;-76
2023/03/31 13:13:14;;;;;;;8.43;7.83;;;13.90;99.90;;;;;;4951916;28;20702;-76
2023/03/31 13:15:50;;;;;;;8.80;8.20;;;14.00;99.90;;;;;;4950124;29;20258;-76
2023/03/31 13:18:21;;;;;;;9.10;8.50;;;14.20;99.90;;;;;;4943152;29;20274;-76
2023/03/31 13:20:58;;;;;;;9.37;8.57;;;14.30;99.90;;;;;;4951400;28;20211;-77
2023/03/31 13:23:27;;;;;;;9.53;8.83;;;14.50;99.90;;;;;;4951893;28;20632;-79
2023/03/31 13:25:55;;;;;;;8.97;8.27;;;14.60;99.90;;;;;;4941178;29;20657;-79
2023/03/31 13:28:41;;;;;;;8.63;8.00;;;14.80;99.90;;;;;;4946960;29;20231;-79
2023/03/31 13:31:10;;;;;;;9.23;8.57;;;15.00;99.90;;;;;;4940433;28;20315;-80
2023/03/31 13:33:42;;;;;;;9.40;8.70;;;15.00;99.90;;;;;;4945768;29;20252;-79
2023/03/31 13:36:48;;;;;;;6.77;6.17;;;15.00;99.90;;;;;;4949333;28;20663;-79
2023/03/31 13:39:56;;;;;;;9.67;8.93;;;15.20;99.90;;;;;;4949415;28;20247;-80
2023/03/31 13:42:51;;;;;;;10.27;9.33;;;15.40;99.90;;;;;;4903523;29;20321;-76
2023/03/31 13:45:27;;;;;;;9.13;8.33;;;15.30;99.90;;;;;;4936182;29;20213;-75
2023/03/31 13:48:37;;;;;;;8.50;7.70;;;15.00;99.90;;;;;;4929447;29;20293;-76
2023/03/31 13:51:19;;;;;;;9.13;7.60;;;14.70;99.90;;;;;;4935202;29;20221;-76
2023/03/31 13:54:17;;;;;;;8.47;7.90;;;14.30;99.90;;;;;;4934575;29;20260;-79
2023/03/31 13:57:19;;;;;;;8.33;7.70;;;13.90;99.90;;;;;;4932728;29;20193;-79
2023/03/31 14:00:11;;;;;;;9.83;8.20;;;13.20;99.90;;;;;;4941024;28;20252;-76
2023/03/31 14:03:08;;;;;;;8.90;8.10;;;12.70;99.90;;;;;;4932714;29;20227;-76
2023/03/31 14:05:42;;;;;;;8.57;7.97;;;12.20;99.90;;;;;;4928744;29;20694;-76
2023/03/31 14:08:13;;;;;;;8.80;8.20;;;11.70;99.90;;;;;;4931943;29;20200;-76
2023/03/31 14:10:42;;;;;;;8.43;7.90;;;11.70;99.90;;;;;;4935497;29;20203;-76
2023/03/31 14:13:11;;;;;;;8.70;8.00;;;11.70;99.90;;;;;;4935474;29;20218;-75
2023/03/31 14:15:42;;;;;;;8.73;8.13;;;12.20;99.90;;;;;;4927215;29;20207;-76
2023/03/31 14:18:15;;;;;;;8.70;8.20;;;12.40;99.90;;;;;;4935297;29;20203;-75
2023/03/31 14:20:52;;;;;;;8.60;8.00;;;12.60;99.90;;;;;;4934882;29;20207;-78
2023/03/31 14:23:32;;;;;;;8.40;7.90;;;12.50;99.90;;;;;;4935419;29;20199;-80
2023/03/31 14:26:05;;;;;;;8.43;7.93;;;12.30;99.90;;;;;;4935685;29;20199;-78
2023/03/31 14:28:47;;;;;;;9.13;8.50;;;12.10;99.90;;;;;;4934117;29;20207;-80
2023/03/31 14:31:20;;;;;;;8.70;8.10;;;12.10;99.90;;;;;;4933127;29;20217;-78
2023/03/31 14:33:59;;;;;;;8.90;8.20;;;12.00;99.90;;;;;;4930548;29;20215;-79
2023/03/31 14:36:36;;;;;;;9.00;8.30;;;12.10;99.90;;;;;;4937169;29;20199;-78
2023/03/31 14:39:06;;;;;;;9.03;8.47;;;12.30;99.90;;;;;;4934939;29;20203;-79
2023/03/31 14:41:36;;;;;;;9.40;8.70;;;12.60;99.90;;;;;;4935026;29;20282;-79
2023/03/31 14:44:06;;;;;;;8.73;8.13;;;12.80;99.90;;;;;;4935670;29;20222;-78
2023/03/31 14:46:37;;;;;;;8.97;8.37;;;12.80;99.90;;;;;;4943588;29;20198;-80
2023/03/31 14:49:16;;;;;;;8.30;7.80;;;12.80;99.90;;;;;;4932591;29;20223;-79
2023/03/31 14:51:45;;;;;;;7.60;7.20;;;12.70;99.90;;;;;;4947670;28;20231;-78
2023/03/31 14:54:17;;;;;;;8.10;7.60;;;12.50;99.90;;;;;;4932575;29;20239;-79
2023/03/31 14:56:47;;;;;;;8.10;7.60;;;12.40;99.90;;;;;;4933084;29;20199;-78
2023/03/31 14:59:19;;;;;;;8.87;8.30;;;12.40;99.90;;;;;;4948500;28;20204;-78
2023/03/31 15:01:48;;;;;;;8.80;8.20;;;12.50;99.90;;;;;;4925271;29;20234;-79
2023/03/31 15:04:18;;;;;;;8.90;8.30;;;12.40;99.90;;;;;;4931536;29;20192;-78
2023/03/31 15:06:48;;;;;;;8.37;7.83;;;12.40;99.90;;;;;;4929689;29;20283;-78